createdAt,value
2022-09-22T19:10:05.580Z,3.78
2022-09-22T19:14:08.489Z,3.17
2022-09-22T19:18:11.440Z,2.78
2022-09-22T19:22:14.514Z,3.33
2022-09-22T19:26:19.691Z,4.30
2022-09-22T19:30:26.630Z,5.78
2022-09-22T19:34:32.954Z,6.50
2022-09-22T19:38:35.853Z,6.18
2022-09-22T19:42:40.596Z,5.10
2022-09-22T19:46:44.509Z,4.70
2022-09-22T19:50:47.933Z,6.05
2022-09-22T19:54:51.122Z,4.25
2022-09-22T19:58:55.414Z,3.80
2022-09-22T20:02:59.278Z,4.40
2022-09-22T20:07:03.266Z,3.47
2022-09-22T20:11:25.595Z,4.25
2022-09-22T20:15:30.553Z,5.30
2022-09-22T20:19:34.850Z,4.38
2022-09-22T20:23:37.711Z,5.45
2022-09-22T20:27:41.074Z,5.90
2022-09-22T20:31:45.384Z,7.05
2022-09-22T20:35:49.064Z,6.63
2022-09-22T20:39:52.122Z,8.13
2022-09-22T20:43:55.584Z,7.90
2022-09-22T20:47:59.768Z,7.72
2022-09-22T20:52:02.686Z,4.78
2022-09-22T20:56:07.585Z,4.10
2022-09-22T21:00:12.392Z,6.53
2022-09-22T21:04:16.652Z,5.50
2022-09-22T21:08:37.198Z,5.70
2022-09-22T21:12:40.428Z,6.15
2022-09-22T21:16:43.621Z,6.47
2022-09-22T21:20:48.120Z,6.75
2022-09-22T21:24:51.373Z,6.80
2022-09-22T21:28:54.725Z,5.53
2022-09-22T21:32:57.611Z,5.10
2022-09-22T21:37:02.032Z,5.05
2022-09-22T21:41:07.274Z,6.28
2022-09-22T21:45:10.814Z,4.07
2022-09-22T21:49:13.913Z,4.50
2022-09-22T21:53:18.251Z,5.45
2022-09-22T21:57:21.130Z,6.20
2022-09-22T22:01:25.720Z,7.82
2022-09-22T22:05:31.203Z,7.20
2022-09-22T22:09:35.532Z,7.75
2022-09-22T22:13:40.918Z,8.38
2022-09-22T22:17:43.764Z,5.75
2022-09-22T22:21:48.007Z,5.32
2022-09-22T22:25:59.073Z,5.32
2022-09-22T22:30:01.970Z,6.63
2022-09-22T22:34:04.838Z,6.13
2022-09-22T22:38:08.917Z,4.97
2022-09-22T22:42:13.116Z,5.10
2022-09-22T22:46:16.667Z,5.47
2022-09-22T22:50:20.093Z,6.60
2022-09-22T22:54:22.994Z,6.78
2022-09-22T22:58:31.012Z,8.55
2022-09-22T23:02:33.907Z,8.18
2022-09-22T23:06:39.400Z,5.82
2022-09-22T23:10:42.345Z,5.72
2022-09-22T23:14:46.588Z,6.57
2022-09-22T23:18:49.538Z,6.32
2022-09-22T23:22:52.429Z,5.28
2022-09-22T23:26:55.299Z,5.30
2022-09-22T23:31:03.056Z,5.07
2022-09-22T23:35:06.702Z,5.32
2022-09-22T23:39:12.081Z,6.65
2022-09-22T23:43:15.003Z,6.45
2022-09-22T23:47:19.502Z,6.40
2022-09-22T23:51:22.406Z,5.25
2022-09-22T23:55:25.314Z,5.60
2022-09-22T23:59:28.281Z,6.25
